createdAt,value
2019-05-06T00:04:18.588Z,56.55
2019-05-06T00:09:18.945Z,56.8
2019-05-06T00:14:25.362Z,56.85
2019-05-06T00:19:25.613Z,57.29
2019-05-06T00:24:25.520Z,57.53
2019-05-06T00:29:25.525Z,57.46
2019-05-06T00:34:25.560Z,57.27
2019-05-06T00:39:25.945Z,57.4
2019-05-06T00:44:25.816Z,57.07
2019-05-06T00:49:25.849Z,57.56
2019-05-06T00:54:26.028Z,58.11
2019-05-06T00:59:26.976Z,57.73
2019-05-06T01:04:26.992Z,58.14
2019-05-06T01:09:34.765Z,58.14
2019-05-06T01:14:35.404Z,58.04
2019-05-06T01:19:34.541Z,58.41
2019-05-06T01:24:34.872Z,59.13
2019-05-06T01:29:35.084Z,58.87
2019-05-06T01:34:34.447Z,59.09
2019-05-06T01:39:34.446Z,60.32
2019-05-06T01:44:34.323Z,59.75
2019-05-06T01:49:34.442Z,59.88
2019-05-06T01:54:34.813Z,59.97
2019-05-06T01:59:34.462Z,61.8
2019-05-06T02:04:44.659Z,61.56
2019-05-06T02:09:44.577Z,62.23
2019-05-06T02:14:44.000Z,61.41
2019-05-06T02:19:44.181Z,62.83
2019-05-06T02:24:44.293Z,61.07
2019-05-06T02:29:43.752Z,61.56
2019-05-06T02:34:46.228Z,61.5
2019-05-06T02:39:44.277Z,62.13
2019-05-06T02:44:44.562Z,62.57
2019-05-06T02:49:44.638Z,62.79
2019-05-06T02:54:43.163Z,62.55
2019-05-06T02:59:55.741Z,63.42
2019-05-06T03:04:53.201Z,62.93
2019-05-06T03:09:53.610Z,63.64
2019-05-06T03:14:53.654Z,63.66
2019-05-06T03:19:53.077Z,64.38
2019-05-06T03:24:54.953Z,64.39
2019-05-06T03:29:54.136Z,64.31
2019-05-06T03:35:24.456Z,64.59
2019-05-06T03:39:53.349Z,64.12
2019-05-06T03:44:53.771Z,64.32
2019-05-06T03:49:55.081Z,64.41
2019-05-06T03:54:59.337Z,63.84
2019-05-06T03:59:59.361Z,64.55
2019-05-06T04:04:59.481Z,64.29
2019-05-06T04:09:59.486Z,64.0
2019-05-06T04:14:59.602Z,63.96
2019-05-06T04:19:59.717Z,63.85
2019-05-06T04:25:03.568Z,64.57
2019-05-06T04:29:59.878Z,64.52
2019-05-06T04:34:59.882Z,64.72
2019-05-06T04:40:00.325Z,64.83
2019-05-06T04:45:00.349Z,64.8
2019-05-06T04:50:08.750Z,64.64
2019-05-06T04:55:08.871Z,64.35
2019-05-06T05:00:08.828Z,64.65
2019-05-06T05:05:09.009Z,64.74
2019-05-06T05:10:08.958Z,64.47
2019-05-06T05:15:08.997Z,63.7
2019-05-06T05:20:09.119Z,64.07
2019-05-06T05:25:09.101Z,63.59
2019-05-06T05:30:09.221Z,64.17
2019-05-06T05:35:09.189Z,63.93
2019-05-06T05:40:09.295Z,63.9
2019-05-06T05:45:15.753Z,63.02
2019-05-06T05:50:15.785Z,62.63
2019-05-06T05:55:15.821Z,63.4
2019-05-06T06:00:15.860Z,64.53
2019-05-06T06:05:15.972Z,64.92
2019-05-06T06:10:16.007Z,64.84
2019-05-06T06:15:16.027Z,64.8
2019-05-06T06:20:16.133Z,64.24
2019-05-06T06:25:16.406Z,64.83
2019-05-06T06:30:16.516Z,64.41
2019-05-06T06:35:19.400Z,64.21
2019-05-06T06:40:22.789Z,64.58
2019-05-06T06:45:23.406Z,64.14
2019-05-06T06:50:22.883Z,64.14
2019-05-06T06:55:22.998Z,64.83
2019-05-06T07:00:23.018Z,63.56
2019-05-06T07:05:28.755Z,63.89
2019-05-06T07:10:23.130Z,64.08
2019-05-06T07:15:23.390Z,63.04
2019-05-06T07:20:23.410Z,62.95
2019-05-06T07:25:23.446Z,63.48
2019-05-06T07:30:23.626Z,64.01
2019-05-06T07:35:41.564Z,65.4
2019-05-06T07:40:29.954Z,64.99
2019-05-06T07:45:30.186Z,64.62
2019-05-06T07:50:30.314Z,65.29
2019-05-06T07:55:32.536Z,65.56
2019-05-06T08:00:32.188Z,64.66
2019-05-06T08:05:32.645Z,65.33
2019-05-06T08:10:33.463Z,63.91
2019-05-06T08:15:32.935Z,64.36
2019-05-06T08:20:32.717Z,62.98
2019-05-06T08:25:33.158Z,62.23
2019-05-06T08:30:37.146Z,62.96
2019-05-06T08:35:37.034Z,63.5
2019-05-06T08:40:37.311Z,63.36
2019-05-06T08:45:37.156Z,64.92
2019-05-06T08:50:37.424Z,64.36
2019-05-06T08:55:37.706Z,64.68
2019-05-06T09:00:37.579Z,63.06
2019-05-06T09:05:37.615Z,65.26
2019-05-06T09:10:37.731Z,63.42
2019-05-06T09:15:37.763Z,62.78
2019-05-06T09:20:38.043Z,62.16
2019-05-06T09:25:44.412Z,59.04
2019-05-06T09:30:44.406Z,61.57
2019-05-06T09:35:44.694Z,57.52
2019-05-06T09:40:44.570Z,59.3
2019-05-06T09:45:44.606Z,58.72
2019-05-06T09:50:46.781Z,55.75
2019-05-06T09:55:44.874Z,55.41
2019-05-06T10:00:45.066Z,55.04
2019-05-06T10:05:45.056Z,52.36
2019-05-06T10:10:59.655Z,51.78
2019-05-06T10:15:45.191Z,53.42
2019-05-06T10:20:51.656Z,48.8
2019-05-06T10:25:52.641Z,49.38
2019-05-06T10:30:51.704Z,46.69
2019-05-06T10:35:53.349Z,48.74
2019-05-06T10:41:07.287Z,46.48
2019-05-06T10:45:52.426Z,41.6
2019-05-06T10:50:52.434Z,44.58
2019-05-06T10:55:54.002Z,45.54
2019-05-06T11:00:53.233Z,46.78
2019-05-06T11:05:53.853Z,47.46
2019-05-06T11:10:53.886Z,46.8
2019-05-06T11:15:59.453Z,44.58
2019-05-06T11:20:59.492Z,45.93
2019-05-06T11:25:59.605Z,49.46
2019-05-06T11:31:02.189Z,50.74
2019-05-06T11:35:59.774Z,51.06
2019-05-06T11:40:59.751Z,52.25
2019-05-06T11:45:59.906Z,50.48
2019-05-06T11:51:00.065Z,49.05
2019-05-06T11:56:02.370Z,48.19
2019-05-06T12:01:02.949Z,45.77
2019-05-06T12:06:00.270Z,43.13
2019-05-06T12:11:06.577Z,45.24
2019-05-06T12:16:06.614Z,45.49
2019-05-06T12:21:16.189Z,45.79
2019-05-06T12:26:06.798Z,44.5
2019-05-06T12:31:06.957Z,45.04
2019-05-06T12:36:06.916Z,41.37
2019-05-06T12:41:07.034Z,41.52
2019-05-06T12:46:07.146Z,41.74
2019-05-06T12:51:07.330Z,40.49
2019-05-06T12:56:07.328Z,43.14
2019-05-06T13:01:07.443Z,41.4
2019-05-06T13:06:13.937Z,41.91
2019-05-06T13:11:13.855Z,38.77
2019-05-06T13:16:14.037Z,40.37
2019-05-06T13:21:13.961Z,40.76
2019-05-06T13:26:14.073Z,39.07
2019-05-06T13:31:24.538Z,42.37
2019-05-06T13:36:14.280Z,41.75
2019-05-06T13:41:14.302Z,37.69
2019-05-06T13:46:14.337Z,37.54
2019-05-06T13:51:14.622Z,37.11
2019-05-06T13:56:14.674Z,37.14
2019-05-06T14:01:23.563Z,37.46
2019-05-06T14:06:21.976Z,35.55
2019-05-06T14:11:23.364Z,35.45
2019-05-06T14:16:25.041Z,39.72
2019-05-06T14:21:23.185Z,34.98
2019-05-06T14:26:23.195Z,37.75
2019-05-06T14:31:25.954Z,38.43
2019-05-06T14:36:23.234Z,38.25
2019-05-06T14:41:27.527Z,38.36
2019-05-06T14:46:23.231Z,38.84
2019-05-06T14:51:23.099Z,38.04
2019-05-06T14:56:29.427Z,39.21
2019-05-06T15:01:29.541Z,39.72
2019-05-06T15:06:29.502Z,39.13
2019-05-06T15:11:29.620Z,39.17
2019-05-06T15:16:29.735Z,38.11
2019-05-06T15:21:38.691Z,39.03
2019-05-06T15:26:33.869Z,38.16
2019-05-06T15:31:31.355Z,37.64
2019-05-06T15:36:33.036Z,37.46
2019-05-06T15:41:32.613Z,36.73
2019-05-06T15:46:32.616Z,36.46
2019-05-06T15:51:39.017Z,39.25
2019-05-06T15:56:39.202Z,38.26
2019-05-06T16:01:39.186Z,37.92
2019-05-06T16:06:39.381Z,37.19
2019-05-06T16:11:39.330Z,36.69
2019-05-06T16:16:39.443Z,35.78
2019-05-06T16:21:45.306Z,37.38
2019-05-06T16:26:39.662Z,35.87
2019-05-06T16:31:39.817Z,37.13
2019-05-06T16:36:39.803Z,36.31
2019-05-06T16:41:39.986Z,37.07
2019-05-06T16:46:48.303Z,37.84
2019-05-06T16:51:48.339Z,38.47
2019-05-06T16:56:48.375Z,38.63
2019-05-06T17:01:48.526Z,38.39
2019-05-06T17:06:48.794Z,37.05
2019-05-06T17:11:48.910Z,37.63
2019-05-06T17:16:49.654Z,36.36
2019-05-06T17:21:52.658Z,36.25
2019-05-06T17:26:56.551Z,36.61
2019-05-06T17:31:50.629Z,37.25
2019-05-06T17:36:50.682Z,38.42
2019-05-06T17:41:57.057Z,38.63
2019-05-06T17:46:57.077Z,38.54
2019-05-06T17:51:57.101Z,39.57
2019-05-06T17:56:57.220Z,39.19
2019-05-06T18:01:57.220Z,38.64
2019-05-06T18:06:57.294Z,39.53
2019-05-06T18:11:59.869Z,41.52
2019-05-06T18:16:57.429Z,40.19
2019-05-06T18:21:57.617Z,43.52
2019-05-06T18:26:57.682Z,44.22
2019-05-06T18:31:57.665Z,43.61
2019-05-06T18:37:03.978Z,45.38
2019-05-06T18:42:20.047Z,44.8
2019-05-06T18:47:04.205Z,46.0
2019-05-06T18:52:04.221Z,44.92
2019-05-06T18:57:05.294Z,45.95
2019-05-06T19:02:04.394Z,44.95
2019-05-06T19:07:16.063Z,46.0
2019-05-06T19:12:04.426Z,46.09
2019-05-06T19:17:04.464Z,45.83
2019-05-06T19:22:04.583Z,45.84
2019-05-06T19:27:04.618Z,46.8
2019-05-06T19:32:08.934Z,46.92
2019-05-06T19:37:09.052Z,47.12
2019-05-06T19:42:09.091Z,47.18
2019-05-06T19:47:09.128Z,46.89
2019-05-06T19:52:09.545Z,47.02
2019-05-06T19:57:09.274Z,47.48
2019-05-06T20:02:09.304Z,47.44
2019-05-06T20:07:09.569Z,47.57
2019-05-06T20:12:09.563Z,47.58
2019-05-06T20:17:09.598Z,47.23
2019-05-06T20:22:09.779Z,47.55
2019-05-06T20:27:16.005Z,47.42
2019-05-06T20:32:16.120Z,47.8
2019-05-06T20:37:16.332Z,47.4
2019-05-06T20:42:16.263Z,47.58
2019-05-06T20:47:16.263Z,47.77
2019-05-06T20:52:16.378Z,47.6
2019-05-06T20:57:16.495Z,47.76
2019-05-06T21:02:16.502Z,48.22
2019-05-06T21:07:16.538Z,48.18
2019-05-06T21:12:16.723Z,48.33
2019-05-06T21:17:16.734Z,48.36
2019-05-06T21:22:25.743Z,48.37
2019-05-06T21:27:23.355Z,48.18
2019-05-06T21:32:23.197Z,48.33
2019-05-06T21:37:23.407Z,48.14
2019-05-06T21:42:24.427Z,48.31
2019-05-06T21:47:23.444Z,47.71
2019-05-06T21:52:39.935Z,47.79
2019-05-06T21:57:23.694Z,48.04
2019-05-06T22:02:25.986Z,48.78
2019-05-06T22:07:26.068Z,48.56
2019-05-06T22:12:26.102Z,48.45
2019-05-06T22:17:32.349Z,49.05
2019-05-06T22:22:30.948Z,48.54
2019-05-06T22:27:30.628Z,48.43
2019-05-06T22:32:32.540Z,48.48
2019-05-06T22:37:30.708Z,48.7
2019-05-06T22:42:32.627Z,48.21
2019-05-06T22:47:32.847Z,48.34
2019-05-06T22:52:32.834Z,48.63
2019-05-06T22:57:33.332Z,48.95
2019-05-06T23:02:32.470Z,49.61
2019-05-06T23:07:31.137Z,50.35
2019-05-06T23:12:37.440Z,51.94
2019-05-06T23:17:37.471Z,52.63
2019-05-06T23:22:37.589Z,51.74
2019-05-06T23:27:37.623Z,52.73
2019-05-06T23:32:37.659Z,53.02
2019-05-06T23:37:37.781Z,52.56
2019-05-06T23:42:37.821Z,53.22
2019-05-06T23:47:37.817Z,53.04
2019-05-06T23:52:38.000Z,52.39
2019-05-06T23:57:38.043Z,52.3
